Wetterdaten: Woche 24.04.06 - 30.04.06 (KW17)
Datum Zeit Temperatur Luftfeuchte Luftdruck Niederschlag Wind Richtung Sonne Solar Taupunkt Windchill
24.04.2006 00:00 8.9 C 73 % 1017.3 hPa 0.0 l/m 0.3 km/h (0 Bft) O-SO 0.00 h 0 W/m 4.3 C 8.8 C
24.04.2006 01:00 8.0 C 78 % 1018.1 hPa 0.0 l/m 0.2 km/h (0 Bft) O-SO 0.00 h 0 W/m 4.4 C 8.0 C
24.04.2006 02:00 7.1 C 81 % 1018.3 hPa 0.0 l/m 0.1 km/h (0 Bft) N 0.00 h 0 W/m 4.1 C 7.1 C
24.04.2006 03:00 6.3 C 83 % 1017.7 hPa 0.0 l/m 0.0 km/h (0 Bft) N 0.00 h 0 W/m 3.6 C 6.3 C
24.04.2006 04:00 5.7 C 86 % 1017.8 hPa 0.0 l/m 0.0 km/h (0 Bft) N 0.00 h 0 W/m 3.5 C 5.7 C
24.04.2006 05:00 5.3 C 87 % 1017.8 hPa 0.0 l/m 1.0 km/h (0 Bft) O-SO 0.00 h 0 W/m 3.4 C 5.2 C
24.04.2006 06:00 4.9 C 89 % 1018.0 hPa 0.0 l/m 0.3 km/h (0 Bft) O-SO 0.03 h 20 W/m 3.2 C 4.8 C
24.04.2006 07:00 5.4 C 88 % 1018.8 hPa 0.0 l/m 0.2 km/h (0 Bft) O-SO 0.80 h 143 W/m 3.6 C 5.4 C
24.04.2006 08:00 7.4 C 77 % 1018.6 hPa 0.0 l/m 0.0 km/h (0 Bft) N 1.00 h 320 W/m 3.5 C 7.4 C
24.04.2006 09:00 11.1 C 61 % 1018.1 hPa 0.0 l/m 0.1 km/h (0 Bft) O-SO 1.00 h 481 W/m 3.8 C 11.1 C
24.04.2006 10:00 14.3 C 49 % 1017.6 hPa 0.0 l/m 0.2 km/h (0 Bft) N 1.00 h 604 W/m 3.6 C 14.3 C
24.04.2006 11:00 17.6 C 40 % 1017.2 hPa 0.0 l/m 2.9 km/h (1 Bft) NW 1.00 h 702 W/m 3.7 C 17.6 C
24.04.2006 12:00 20.7 C 33 % 1015.8 hPa 0.0 l/m 8.4 km/h (2 Bft) O-SO 1.00 h 776 W/m 3.8 C 20.7 C
24.04.2006 13:00 22.2 C 30 % 1014.9 hPa 0.0 l/m 7.4 km/h (2 Bft) SO 1.00 h 778 W/m 3.9 C 22.2 C
24.04.2006 14:00 23.1 C 28 % 1014.4 hPa 0.0 l/m 2.1 km/h (1 Bft) SO 1.00 h 760 W/m 3.7 C 23.1 C
24.04.2006 15:00 24.1 C 21 % 1014.3 hPa 0.0 l/m 2.1 km/h (1 Bft) O-SO 1.00 h 696 W/m 0.3 C 24.1 C
24.04.2006 16:00 24.7 C 21 % 1013.2 hPa 0.0 l/m 2.1 km/h (1 Bft) NW 0.87 h 562 W/m 0.7 C 24.7 C
24.04.2006 17:00 25.0 C 21 % 1012.9 hPa 0.0 l/m 1.7 km/h (1 Bft) O-SO 0.97 h 465 W/m 0.8 C 25.0 C
24.04.2006 18:00 23.8 C 23 % 1012.3 hPa 0.0 l/m 0.9 km/h (0 Bft) O-SO 1.00 h 310 W/m 1.0 C 23.8 C
24.04.2006 19:00 22.4 C 30 % 1013.1 hPa 0.0 l/m 1.8 km/h (1 Bft) O-SO 0.53 h 112 W/m 3.8 C 22.4 C
24.04.2006 20:00 19.8 C 42 % 1013.8 hPa 0.0 l/m 1.3 km/h (1 Bft) O-SO 0.03 h 16 W/m 6.3 C 19.8 C
24.04.2006 21:00 18.1 C 48 % 1014.2 hPa 0.0 l/m 0.9 km/h (0 Bft) O-SO 0.00 h 0 W/m 7.0 C 18.1 C
24.04.2006 22:00 17.2 C 50 % 1015.7 hPa 0.0 l/m 0.9 km/h (0 Bft) O-SO 0.00 h 0 W/m 6.7 C 17.2 C
24.04.2006 23:00 16.5 C 53 % 1016.3 hPa 0.0 l/m 0.2 km/h (0 Bft) W-NW 0.00 h 0 W/m 7.0 C 16.5 C
25.04.2006 00:00 16.4 C 54 % 1017.3 hPa 0.0 l/m 5.7 km/h (1 Bft) NW 0.00 h 0 W/m 7.0 C 16.4 C
25.04.2006 01:00 14.1 C 76 % 1017.6 hPa 0.0 l/m 1.7 km/h (1 Bft) SO 0.00 h 0 W/m 10.0 C 14.1 C
25.04.2006 02:00 13.1 C 85 % 1017.5 hPa 0.3 l/m 2.1 km/h (1 Bft) SO 0.00 h 0 W/m 10.6 C 13.1 C
25.04.2006 03:00 12.3 C 90 % 1017.9 hPa 0.3 l/m 0.2 km/h (0 Bft) W-NW 0.00 h 0 W/m 10.8 C 12.3 C
25.04.2006 04:00 12.1 C 91 % 1017.9 hPa 0.0 l/m 0.7 km/h (0 Bft) O-SO 0.00 h 0 W/m 10.7 C 12.1 C
25.04.2006 05:00 11.7 C 93 % 1018.0 hPa 0.0 l/m 0.9 km/h (0 Bft) O-SO 0.00 h 0 W/m 10.6 C 11.7 C
25.04.2006 06:00 11.1 C 94 % 1018.1 hPa 0.0 l/m 0.0 km/h (0 Bft) O-SO 0.00 h 13 W/m 10.2 C 11.1 C
25.04.2006 07:00 11.5 C 93 % 1018.0 hPa 0.0 l/m 0.1 km/h (0 Bft) N 0.00 h 55 W/m 10.4 C 11.5 C
25.04.2006 08:00 12.5 C 90 % 1018.3 hPa 0.0 l/m 0.0 km/h (0 Bft) N 0.07 h 149 W/m 10.8 C 12.5 C
25.04.2006 09:00 13.9 C 80 % 1018.7 hPa 0.0 l/m 0.0 km/h (0 Bft) N 0.20 h 270 W/m 10.5 C 13.9 C
25.04.2006 10:00 15.4 C 73 % 1018.5 hPa 0.0 l/m 0.0 km/h (0 Bft) N 0.40 h 408 W/m 10.5 C 15.4 C
25.04.2006 11:00 17.8 C 62 % 1018.2 hPa 0.0 l/m 1.0 km/h (0 Bft) SO 0.83 h 600 W/m 10.3 C 17.8 C
25.04.2006 12:00 18.9 C 54 % 1018.1 hPa 0.0 l/m 1.7 km/h (1 Bft) SO 0.50 h 506 W/m 9.4 C 18.9 C
25.04.2006 13:00 19.3 C 53 % 1017.7 hPa 0.0 l/m 1.5 km/h (1 Bft) SO 0.40 h 489 W/m 9.5 C 19.3 C
25.04.2006 14:00 20.0 C 49 % 1017.5 hPa 0.0 l/m 4.4 km/h (1 Bft) SO 0.80 h 543 W/m 9.0 C 20.0 C
25.04.2006 15:00 19.9 C 48 % 1016.9 hPa 0.0 l/m 6.6 km/h (2 Bft) NW 0.77 h 531 W/m 8.5 C 19.9 C
25.04.2006 16:00 19.9 C 45 % 1016.7 hPa 0.0 l/m 0.2 km/h (0 Bft) NW 0.27 h 299 W/m 7.5 C 19.9 C
25.04.2006 17:00 19.7 C 45 % 1016.2 hPa 0.0 l/m 0.0 km/h (0 Bft) N 0.07 h 227 W/m 7.6 C 19.7 C
25.04.2006 18:00 19.6 C 47 % 1016.9 hPa 0.0 l/m 4.7 km/h (1 Bft) NW 0.13 h 170 W/m 8.1 C 19.6 C
25.04.2006 19:00 18.2 C 52 % 1017.1 hPa 0.0 l/m 7.5 km/h (2 Bft) NW 0.30 h 88 W/m 8.2 C 18.2 C
25.04.2006 20:00 16.7 C 55 % 1017.3 hPa 0.0 l/m 0.0 km/h (0 Bft) N 0.07 h 18 W/m 7.7 C 16.7 C
25.04.2006 21:00 16.0 C 59 % 1018.4 hPa 0.0 l/m 0.0 km/h (0 Bft) N 0.00 h 0 W/m 7.9 C 16.0 C
25.04.2006 22:00 15.3 C 64 % 1018.5 hPa 0.0 l/m 0.0 km/h (0 Bft) N 0.00 h 0 W/m 8.5 C 15.3 C
25.04.2006 23:00 14.6 C 69 % 1018.6 hPa 0.0 l/m 0.0 km/h (0 Bft) N 0.00 h 0 W/m 8.9 C 14.6 C
26.04.2006 00:00 14.2 C 73 % 1018.7 hPa 0.0 l/m 0.0 km/h (0 Bft) N 0.00 h 0 W/m 9.4 C 14.2 C
26.04.2006 01:00 13.7 C 78 % 1018.7 hPa 0.0 l/m 0.5 km/h (0 Bft) O-SO 0.00 h 0 W/m 9.9 C 13.7 C
26.04.2006 02:00 13.1 C 80 % 1018.8 hPa 0.0 l/m 0.0 km/h (0 Bft) N 0.00 h 0 W/m 9.7 C 13.1 C
26.04.2006 03:00 12.4 C 83 % 1018.9 hPa 0.0 l/m 0.0 km/h (0 Bft) N 0.00 h 0 W/m 9.5 C 12.4 C
26.04.2006 04:00 11.5 C 90 % 1019.0 hPa 0.0 l/m 0.0 km/h (0 Bft) N 0.00 h 0 W/m 9.8 C 11.5 C
26.04.2006 05:00 10.9 C 88 % 1019.1 hPa 0.0 l/m 0.0 km/h (0 Bft) N 0.00 h 0 W/m 9.1 C 10.9 C
26.04.2006 06:00 10.7 C 90 % 1019.1 hPa 0.0 l/m 0.0 km/h (0 Bft) N 0.00 h 21 W/m 9.1 C 10.7 C
26.04.2006 07:00 11.5 C 88 % 1019.0 hPa 0.0 l/m 0.0 km/h (0 Bft) N 0.00 h 44 W/m 9.5 C 11.5 C
26.04.2006 08:00 12.0 C 84 % 1019.0 hPa 0.0 l/m 0.0 km/h (0 Bft) N 0.00 h 64 W/m 9.4 C 12.0 C
26.04.2006 09:00 13.3 C 79 % 1018.8 hPa 0.0 l/m 0.2 km/h (0 Bft) SO 0.00 h 152 W/m 9.7 C 13.3 C
26.04.2006 10:00 14.7 C 75 % 1018.6 hPa 0.0 l/m 0.0 km/h (0 Bft) N 0.00 h 242 W/m 10.3 C 14.7 C
26.04.2006 11:00 15.8 C 69 % 1018.5 hPa 0.0 l/m 0.8 km/h (0 Bft) S-SW 0.03 h 308 W/m 10.1 C 15.8 C
26.04.2006 12:00 16.1 C 69 % 1018.4 hPa 0.0 l/m 5.2 km/h (1 Bft) S 0.20 h 389 W/m 10.4 C 16.1 C
26.04.2006 13:00 16.7 C 63 % 1017.7 hPa 0.0 l/m 10.2 km/h (2 Bft) SO 0.47 h 435 W/m 9.6 C 16.7 C
26.04.2006 14:00 12.8 C 73 % 1018.9 hPa 6.8 l/m 1.4 km/h (1 Bft) NW 0.00 h 45 W/m 8.0 C 12.8 C
26.04.2006 15:00 11.7 C 91 % 1019.0 hPa 2.6 l/m 0.0 km/h (0 Bft) N 0.00 h 141 W/m 10.2 C 11.7 C
26.04.2006 16:00 13.0 C 90 % 1018.0 hPa 0.0 l/m 1.0 km/h (0 Bft) O-SO 0.00 h 220 W/m 11.3 C 13.0 C
26.04.2006 17:00 13.2 C 87 % 1018.5 hPa 0.0 l/m 0.0 km/h (0 Bft) N 0.00 h 156 W/m 11.0 C 13.2 C
26.04.2006 18:00 13.0 C 91 % 1018.8 hPa 0.0 l/m 3.5 km/h (1 Bft) O-SO 0.00 h 81 W/m 11.4 C 13.0 C
26.04.2006 19:00 12.5 C 91 % 1018.9 hPa 0.3 l/m 0.0 km/h (0 Bft) N 0.00 h 18 W/m 11.1 C 12.5 C
26.04.2006 20:00 12.1 C 96 % 1019.0 hPa 0.0 l/m 0.0 km/h (0 Bft) N 0.00 h 4 W/m 11.5 C 12.1 C
26.04.2006 21:00 11.9 C 97 % 1019.0 hPa 0.0 l/m 0.0 km/h (0 Bft) N 0.00 h 0 W/m 11.4 C 11.9 C
26.04.2006 22:00 11.8 C 98 % 1019.0 hPa 0.0 l/m 0.0 km/h (0 Bft) N 0.00 h 0 W/m 11.5 C 11.8 C
26.04.2006 23:00 11.4 C 97 % 1019.1 hPa 0.0 l/m 0.0 km/h (0 Bft) N 0.00 h 0 W/m 11.0 C 11.4 C
27.04.2006 00:00 11.4 C 97 % 1019.0 hPa 0.0 l/m 0.0 km/h (0 Bft) N 0.00 h 0 W/m 11.0 C 11.4 C
27.04.2006 01:00 11.5 C 97 % 1019.0 hPa 0.0 l/m 0.0 km/h (0 Bft) N 0.00 h 0 W/m 11.0 C 11.5 C
27.04.2006 02:00 11.2 C 97 % 1018.4 hPa 0.0 l/m 0.0 km/h (0 Bft) N 0.00 h 0 W/m 10.7 C 11.2 C
27.04.2006 03:00 11.2 C 97 % 1018.0 hPa 0.0 l/m 0.0 km/h (0 Bft) N 0.00 h 0 W/m 10.7 C 11.2 C
27.04.2006 04:00 11.2 C 97 % 1018.0 hPa 0.0 l/m 0.0 km/h (0 Bft) N 0.00 h 0 W/m 10.7 C 11.2 C
27.04.2006 05:00 11.1 C 96 % 1018.1 hPa 0.0 l/m 0.0 km/h (0 Bft) N 0.00 h 0 W/m 10.5 C 11.1 C
27.04.2006 06:00 11.1 C 96 % 1018.1 hPa 0.0 l/m 0.0 km/h (0 Bft) N 0.00 h 7 W/m 10.5 C 11.1 C
27.04.2006 07:00 11.2 C 96 % 1018.0 hPa 0.0 l/m 0.0 km/h (0 Bft) N 0.00 h 48 W/m 10.6 C 11.2 C
27.04.2006 08:00 11.5 C 93 % 1018.0 hPa 0.0 l/m 0.0 km/h (0 Bft) N 0.00 h 92 W/m 10.4 C 11.5 C
27.04.2006 09:00 12.1 C 88 % 1017.9 hPa 0.0 l/m 0.0 km/h (0 Bft) N 0.00 h 144 W/m 10.3 C 12.1 C
27.04.2006 10:00 13.0 C 83 % 1017.8 hPa 0.0 l/m 0.0 km/h (0 Bft) N 0.00 h 227 W/m 10.2 C 13.0 C
27.04.2006 11:00 14.2 C 77 % 1017.6 hPa 0.0 l/m 0.4 km/h (0 Bft) W-NW 0.40 h 438 W/m 10.2 C 14.2 C
27.04.2006 12:00 15.1 C 67 % 1017.1 hPa 0.0 l/m 0.6 km/h (0 Bft) W-NW 0.33 h 497 W/m 8.9 C 15.1 C
27.04.2006 13:00 16.2 C 62 % 1016.3 hPa 0.0 l/m 0.5 km/h (0 Bft) NW 0.23 h 403 W/m 8.9 C 16.2 C
27.04.2006 14:00 15.3 C 71 % 1016.5 hPa 0.0 l/m 1.2 km/h (1 Bft) W-NW 0.00 h 242 W/m 9.9 C 15.3 C
27.04.2006 15:00 15.1 C 76 % 1016.5 hPa 1.3 l/m 0.6 km/h (0 Bft) O-SO 0.00 h 179 W/m 10.9 C 15.1 C
27.04.2006 16:00 13.2 C 92 % 1016.7 hPa 2.9 l/m 0.0 km/h (0 Bft) N 0.00 h 100 W/m 11.9 C 13.2 C
27.04.2006 17:00 13.0 C 93 % 1016.8 hPa 1.3 l/m 0.0 km/h (0 Bft) N 0.00 h 72 W/m 11.8 C 13.0 C
27.04.2006 18:00 12.3 C 94 % 1016.4 hPa 1.0 l/m 0.0 km/h (0 Bft) N 0.00 h 40 W/m 11.3 C 12.3 C
27.04.2006 19:00 12.1 C 95 % 1016.3 hPa 0.0 l/m 0.0 km/h (0 Bft) N 0.00 h 14 W/m 11.4 C 12.1 C
27.04.2006 20:00 11.9 C 96 % 1016.9 hPa 0.0 l/m 0.0 km/h (0 Bft) N 0.00 h 5 W/m 11.3 C 11.9 C
27.04.2006 21:00 11.9 C 97 % 1017.1 hPa 1.0 l/m 0.0 km/h (0 Bft) N 0.00 h 0 W/m 11.5 C 11.9 C
27.04.2006 22:00 11.8 C 99 % 1016.9 hPa 1.0 l/m 0.0 km/h (0 Bft) N 0.00 h 0 W/m 11.6 C 11.8 C
27.04.2006 23:00 11.7 C 99 % 1016.9 hPa 0.0 l/m 0.0 km/h (0 Bft) N 0.00 h 0 W/m 11.5 C 11.7 C
28.04.2006 00:00 11.7 C 99 % 1016.9 hPa 0.0 l/m 0.0 km/h (0 Bft) N 0.00 h 0 W/m 11.5 C 11.7 C
28.04.2006 01:00 11.6 C 98 % 1017.0 hPa 0.0 l/m 0.0 km/h (0 Bft) N 0.00 h 0 W/m 11.2 C 11.6 C
28.04.2006 02:00 11.5 C 98 % 1016.0 hPa 0.0 l/m 0.0 km/h (0 Bft) N 0.00 h 0 W/m 11.2 C 11.5 C
28.04.2006 03:00 11.4 C 98 % 1015.9 hPa 0.0 l/m 0.0 km/h (0 Bft) N 0.00 h 0 W/m 11.1 C 11.4 C
28.04.2006 04:00 11.3 C 98 % 1015.8 hPa 0.3 l/m 0.0 km/h (0 Bft) N 0.00 h 0 W/m 11.0 C 11.3 C
28.04.2006 05:00 11.0 C 99 % 1015.0 hPa 0.3 l/m 0.0 km/h (0 Bft) N 0.00 h 0 W/m 10.8 C 11.0 C
28.04.2006 06:00 10.6 C 98 % 1015.2 hPa 0.0 l/m 0.0 km/h (0 Bft) N 0.00 h 2 W/m 10.3 C 10.6 C
28.04.2006 07:00 10.4 C 97 % 1015.6 hPa 0.0 l/m 0.0 km/h (0 Bft) N 0.00 h 14 W/m 10.0 C 10.4 C
28.04.2006 08:00 10.3 C 97 % 1016.1 hPa 0.0 l/m 0.1 km/h (0 Bft) W-NW 0.00 h 26 W/m 9.7 C 10.3 C
28.04.2006 09:00 10.4 C 94 % 1016.1 hPa 0.0 l/m 0.0 km/h (0 Bft) N 0.00 h 76 W/m 9.4 C 10.4 C
28.04.2006 10:00 11.0 C 91 % 1016.0 hPa 0.0 l/m 0.0 km/h (0 Bft) N 0.00 h 149 W/m 9.6 C 11.0 C
28.04.2006 11:00 11.4 C 88 % 1015.9 hPa 0.0 l/m 0.0 km/h (0 Bft) N 0.00 h 185 W/m 9.5 C 11.4 C
28.04.2006 12:00 12.3 C 82 % 1015.6 hPa 0.0 l/m 0.8 km/h (0 Bft) NW 0.00 h 289 W/m 9.3 C 12.3 C
28.04.2006 13:00 13.0 C 78 % 1014.8 hPa 0.0 l/m 0.6 km/h (0 Bft) NW 0.00 h 290 W/m 9.2 C 13.0 C
28.04.2006 14:00 13.3 C 75 % 1014.6 hPa 0.0 l/m 0.1 km/h (0 Bft) N 0.00 h 294 W/m 9.0 C 13.3 C
28.04.2006 15:00 13.2 C 76 % 1014.7 hPa 0.0 l/m 0.4 km/h (0 Bft) NW 0.00 h 157 W/m 9.0 C 13.2 C
28.04.2006 16:00 12.4 C 79 % 1014.8 hPa 0.0 l/m 0.0 km/h (0 Bft) N 0.00 h 115 W/m 8.9 C 12.4 C
28.04.2006 17:00 12.5 C 78 % 1014.3 hPa 0.0 l/m 0.0 km/h (0 Bft) N 0.00 h 88 W/m 8.7 C 12.5 C
28.04.2006 18:00 12.3 C 78 % 1013.7 hPa 0.0 l/m 0.0 km/h (0 Bft) N 0.00 h 34 W/m 8.5 C 12.3 C
28.04.2006 19:00 11.9 C 83 % 1013.8 hPa 0.0 l/m 0.0 km/h (0 Bft) N 0.00 h 12 W/m 9.0 C 11.9 C
28.04.2006 20:00 11.4 C 86 % 1014.3 hPa 0.0 l/m 0.0 km/h (0 Bft) N 0.00 h 3 W/m 9.2 C 11.4 C
28.04.2006 21:00 11.1 C 90 % 1014.9 hPa 0.0 l/m 0.6 km/h (0 Bft) O-SO 0.00 h 0 W/m 9.5 C 11.1 C
28.04.2006 22:00 10.7 C 90 % 1015.0 hPa 0.0 l/m 0.0 km/h (0 Bft) N 0.00 h 0 W/m 9.1 C 10.7 C
28.04.2006 23:00 9.8 C 93 % 1014.3 hPa 0.0 l/m 0.0 km/h (0 Bft) N 0.00 h 0 W/m 8.7 C 9.8 C
29.04.2006 00:00 9.5 C 94 % 1014.1 hPa 0.0 l/m 0.0 km/h (0 Bft) N 0.00 h 0 W/m 8.6 C 9.5 C
29.04.2006 01:00 9.2 C 93 % 1014.0 hPa 0.0 l/m 0.0 km/h (0 Bft) N 0.00 h 0 W/m 8.1 C 9.2 C
29.04.2006 02:00 8.8 C 90 % 1013.2 hPa 0.0 l/m 0.0 km/h (0 Bft) N 0.00 h 0 W/m 7.2 C 8.8 C
29.04.2006 03:00 8.6 C 85 % 1013.2 hPa 0.0 l/m 0.0 km/h (0 Bft) N 0.00 h 0 W/m 6.3 C 8.6 C
29.04.2006 04:00 8.4 C 86 % 1012.8 hPa 0.0 l/m 0.0 km/h (0 Bft) N 0.00 h 0 W/m 6.1 C 8.4 C
29.04.2006 05:00 8.1 C 84 % 1012.2 hPa 0.0 l/m 0.0 km/h (0 Bft) N 0.00 h 0 W/m 5.5 C 8.1 C
29.04.2006 06:00 7.8 C 79 % 1012.3 hPa 0.0 l/m 0.2 km/h (0 Bft) NW 0.00 h 14 W/m 4.4 C 7.8 C
29.04.2006 07:00 7.8 C 74 % 1012.3 hPa 0.0 l/m 1.0 km/h (0 Bft) W-NW 0.00 h 59 W/m 3.4 C 7.7 C
29.04.2006 08:00 8.1 C 68 % 1013.1 hPa 0.0 l/m 4.7 km/h (1 Bft) W-NW 0.00 h 115 W/m 2.6 C 7.4 C
29.04.2006 09:00 8.4 C 67 % 1013.2 hPa 0.0 l/m 0.6 km/h (0 Bft) NW 0.00 h 173 W/m 2.7 C 8.4 C
29.04.2006 10:00 9.4 C 62 % 1013.1 hPa 0.0 l/m 2.7 km/h (1 Bft) W-NW 0.00 h 252 W/m 2.5 C 9.1 C
29.04.2006 11:00 9.8 C 56 % 1013.0 hPa 0.0 l/m 6.8 km/h (2 Bft) W-NW 0.00 h 268 W/m 1.6 C 9.0 C
29.04.2006 12:00 10.2 C 47 % 1013.0 hPa 0.0 l/m 17.5 km/h (3 Bft) NW 0.00 h 274 W/m -0.7 C 9.4 C
29.04.2006 13:00 10.2 C 44 % 1013.0 hPa 0.0 l/m 18.2 km/h (3 Bft) NW 0.00 h 286 W/m -1.6 C 9.2 C
29.04.2006 14:00 9.9 C 44 % 1013.0 hPa 0.0 l/m 21.6 km/h (4 Bft) NW 0.03 h 272 W/m -1.9 C 7.9 C
29.04.2006 15:00 10.6 C 42 % 1012.9 hPa 0.0 l/m 18.4 km/h (3 Bft) NW 0.37 h 502 W/m -1.6 C 10.3 C
29.04.2006 16:00 11.2 C 34 % 1012.9 hPa 0.0 l/m 25.0 km/h (4 Bft) NW 0.40 h 352 W/m -4.0 C 11.2 C
29.04.2006 17:00 12.0 C 26 % 1013.4 hPa 0.0 l/m 14.9 km/h (3 Bft) NW 0.97 h 495 W/m -7.0 C 12.0 C
29.04.2006 18:00 10.6 C 31 % 1014.0 hPa 0.0 l/m 1.7 km/h (1 Bft) NW 0.10 h 134 W/m -6.3 C 10.6 C
29.04.2006 19:00 9.1 C 37 % 1015.0 hPa 0.0 l/m 0.2 km/h (0 Bft) N-NW 0.00 h 29 W/m -4.9 C 9.1 C
29.04.2006 20:00 8.3 C 37 % 1015.3 hPa 0.0 l/m 2.1 km/h (1 Bft) N-NW 0.13 h 21 W/m -5.4 C 8.1 C
29.04.2006 21:00 6.9 C 43 % 1016.5 hPa 0.0 l/m 0.0 km/h (0 Bft) N 0.00 h 0 W/m -4.8 C 6.9 C
29.04.2006 22:00 4.4 C 61 % 1016.9 hPa 0.0 l/m 0.0 km/h (0 Bft) N 0.00 h 0 W/m -2.4 C 4.4 C
29.04.2006 23:00 3.0 C 71 % 1017.2 hPa 0.0 l/m 2.4 km/h (1 Bft) O-SO 0.00 h 0 W/m -1.8 C 2.5 C
30.04.2006 00:00 1.8 C 79 % 1017.3 hPa 0.0 l/m 1.2 km/h (1 Bft) O-SO 0.00 h 0 W/m -1.4 C 1.6 C
30.04.2006 01:00 0.8 C 82 % 1017.4 hPa 0.0 l/m 0.5 km/h (0 Bft) O-SO 0.00 h 0 W/m -2.0 C 0.7 C
30.04.2006 02:00 -0.0 C 90 % 1016.9 hPa 0.0 l/m 0.0 km/h (0 Bft) N 0.00 h 0 W/m -1.5 C -0.0 C
30.04.2006 03:00 -0.5 C 90 % 1016.6 hPa 0.0 l/m 0.0 km/h (0 Bft) N 0.00 h 0 W/m -1.9 C -0.5 C
30.04.2006 04:00 -0.9 C 92 % 1016.3 hPa 0.0 l/m 0.0 km/h (0 Bft) N 0.00 h 0 W/m -2.0 C -0.9 C
30.04.2006 05:00 -1.3 C 94 % 1015.7 hPa 0.0 l/m 0.0 km/h (0 Bft) N 0.00 h 0 W/m -2.1 C -1.3 C
30.04.2006 06:00 -0.9 C 95 % 1015.6 hPa 0.0 l/m 0.0 km/h (0 Bft) N 0.00 h 16 W/m -1.7 C -0.9 C
30.04.2006 07:00 0.3 C 92 % 1015.4 hPa 0.0 l/m 0.0 km/h (0 Bft) N 0.00 h 55 W/m -0.8 C 0.3 C
30.04.2006 08:00 1.7 C 87 % 1015.2 hPa 0.0 l/m 0.4 km/h (0 Bft) O-SO 0.00 h 128 W/m -0.2 C 1.6 C
30.04.2006 09:00 3.3 C 85 % 1015.1 hPa 0.0 l/m 0.0 km/h (0 Bft) N 0.00 h 193 W/m 1.0 C 3.3 C
30.04.2006 10:00 6.2 C 74 % 1014.6 hPa 0.0 l/m 2.2 km/h (1 Bft) SO 0.83 h 576 W/m 1.8 C 5.9 C
30.04.2006 11:00 9.4 C 47 % 1013.6 hPa 0.0 l/m 2.5 km/h (1 Bft) SO 0.83 h 615 W/m -1.5 C 9.2 C
30.04.2006 12:00 10.0 C 41 % 1013.0 hPa 0.0 l/m 2.3 km/h (1 Bft) S-SW 0.90 h 764 W/m -2.6 C 10.0 C
30.04.2006 13:00 11.4 C 36 % 1012.3 hPa 0.0 l/m 2.2 km/h (1 Bft) SO 0.80 h 675 W/m -3.2 C 11.4 C
30.04.2006 14:00 11.9 C 32 % 1011.7 hPa 0.0 l/m 2.2 km/h (1 Bft) NW 0.70 h 653 W/m -4.5 C 11.9 C
30.04.2006 15:00 12.6 C 29 % 1011.6 hPa 0.0 l/m 2.6 km/h (1 Bft) NW 0.70 h 574 W/m -5.1 C 12.6 C
30.04.2006 16:00 13.1 C 32 % 1010.6 hPa 0.0 l/m 3.7 km/h (1 Bft) O-SO 0.23 h 375 W/m -3.2 C 13.1 C
30.04.2006 17:00 12.1 C 30 % 1010.7 hPa 0.0 l/m 6.8 km/h (2 Bft) NW 0.03 h 222 W/m -5.0 C 12.1 C
30.04.2006 18:00 11.4 C 33 % 1010.7 hPa 0.0 l/m 3.0 km/h (1 Bft) W-NW 0.00 h 106 W/m -4.1 C 11.4 C
30.04.2006 19:00 11.6 C 35 % 1011.3 hPa 0.0 l/m 5.0 km/h (1 Bft) NW 0.63 h 125 W/m -3.4 C 11.6 C
30.04.2006 20:00 9.4 C 45 % 1012.1 hPa 0.0 l/m 3.1 km/h (1 Bft) W-NW 0.03 h 21 W/m -1.9 C 9.4 C
30.04.2006 21:00 7.2 C 57 % 1012.9 hPa 0.0 l/m 4.0 km/h (1 Bft) O-SO 0.00 h 0 W/m -0.8 C 6.5 C
30.04.2006 22:00 6.4 C 64 % 1013.5 hPa 0.0 l/m 1.0 km/h (0 Bft) O-SO 0.00 h 0 W/m 0.1 C 6.3 C
30.04.2006 23:00 5.9 C 71 % 1013.6 hPa 0.0 l/m 0.0 km/h (0 Bft) N 0.00 h 0 W/m 1.0 C 5.9 C
Min-Datum _ 30.04.06 24.04.06 30.04.06 - 24.04.06 - - - 29.04.06 30.04.06
_ Min-Zeit 06:07 14:36 16:21 - 00:00 - - - 18:15 06:07
Minimum _ -1.5 C 20 % 1010.4 hPa - 0.0 km/h (0 Bft) - - - -11.2 C -1.5 C
Max-Datum _ 24.04.06 30.04.06 26.04.06 26.04.06 29.04.06 - 29.04.06 27.04.06 27.04.06 24.04.06
_ Max-Zeit 16:42 07:11 06:18 14:42 17:09 - 16:03 13:02 16:46 16:42
Maximum _ 26.0 C 100 % 1019.2 hPa 6.8 l/m 38.9 km/h
NW (6 Bft)
- 0.05 h 998 W/m 12.3 C 26.0 C
Durchschnitt _ 11.8 C 73 % 1016.1 hPa #19.5 l/m 1.7 km/h (1 Bft) NW #26:24 h 248 W/m 6.1 C 11.7 C
© Kaiko 2006